sensor_id;sensor_type;location;lat;lon;timestamp;P1;durP1;ratioP1;P2;durP2;ratioP2
55758;SDS011;41678;52.126;20.664;2023-03-21T00:04:37;30.35;;;12.45;;
55758;SDS011;41678;52.126;20.664;2023-03-21T00:09:57;34.92;;;13.48;;
55758;SDS011;41678;52.126;20.664;2023-03-21T00:15:16;31.95;;;12.23;;
55758;SDS011;41678;52.126;20.664;2023-03-21T00:20:36;35.42;;;12.77;;
55758;SDS011;41678;52.126;20.664;2023-03-21T00:25:56;38.35;;;14.25;;
55758;SDS011;41678;52.126;20.664;2023-03-21T00:31:16;37.55;;;14.07;;
55758;SDS011;41678;52.126;20.664;2023-03-21T00:36:36;33.70;;;13.82;;
55758;SDS011;41678;52.126;20.664;2023-03-21T00:41:59;30.85;;;12.20;;
55758;SDS011;41678;52.126;20.664;2023-03-21T00:47:19;30.48;;;12.38;;
55758;SDS011;41678;52.126;20.664;2023-03-21T00:52:39;27.35;;;10.98;;
55758;SDS011;41678;52.126;20.664;2023-03-21T00:57:58;30.50;;;12.00;;
55758;SDS011;41678;52.126;20.664;2023-03-21T01:03:19;26.52;;;10.63;;
55758;SDS011;41678;52.126;20.664;2023-03-21T01:08:40;25.63;;;10.38;;
55758;SDS011;41678;52.126;20.664;2023-03-21T01:14:02;33.67;;;10.95;;
55758;SDS011;41678;52.126;20.664;2023-03-21T01:19:23;24.35;;;10.38;;
55758;SDS011;41678;52.126;20.664;2023-03-21T01:24:46;26.02;;;10.10;;
55758;SDS011;41678;52.126;20.664;2023-03-21T01:30:06;25.73;;;10.25;;
55758;SDS011;41678;52.126;20.664;2023-03-21T01:35:26;25.52;;;9.27;;
55758;SDS011;41678;52.126;20.664;2023-03-21T01:40:47;24.50;;;11.13;;
55758;SDS011;41678;52.126;20.664;2023-03-21T01:46:19;28.52;;;10.88;;
55758;SDS011;41678;52.126;20.664;2023-03-21T01:51:59;31.88;;;10.63;;
55758;SDS011;41678;52.126;20.664;2023-03-21T01:57:24;25.25;;;11.15;;
55758;SDS011;41678;52.126;20.664;2023-03-21T02:02:52;29.50;;;11.52;;
55758;SDS011;41678;52.126;20.664;2023-03-21T02:08:38;29.58;;;12.20;;
55758;SDS011;41678;52.126;20.664;2023-03-21T02:14:04;25.30;;;12.52;;
55758;SDS011;41678;52.126;20.664;2023-03-21T02:25:19;25.23;;;10.48;;
55758;SDS011;41678;52.126;20.664;2023-03-21T02:36:32;65.20;;;17.88;;
55758;SDS011;41678;52.126;20.664;2023-03-21T02:53:02;36.63;;;13.70;;
55758;SDS011;41678;52.126;20.664;2023-03-21T02:58:26;38.53;;;11.75;;
55758;SDS011;41678;52.126;20.664;2023-03-21T03:03:50;29.20;;;11.55;;
55758;SDS011;41678;52.126;20.664;2023-03-21T03:09:16;33.58;;;13.05;;
55758;SDS011;41678;52.126;20.664;2023-03-21T03:14:52;33.60;;;12.82;;
55758;SDS011;41678;52.126;20.664;2023-03-21T03:26:11;26.38;;;11.00;;
55758;SDS011;41678;52.126;20.664;2023-03-21T03:31:38;29.20;;;10.50;;
55758;SDS011;41678;52.126;20.664;2023-03-21T03:37:03;25.60;;;9.60;;
55758;SDS011;41678;52.126;20.664;2023-03-21T03:42:28;34.25;;;11.65;;
55758;SDS011;41678;52.126;20.664;2023-03-21T03:53:36;30.58;;;11.48;;
55758;SDS011;41678;52.126;20.664;2023-03-21T03:59:00;39.90;;;13.95;;
55758;SDS011;41678;52.126;20.664;2023-03-21T04:04:40;38.75;;;14.10;;
55758;SDS011;41678;52.126;20.664;2023-03-21T04:10:00;35.20;;;12.93;;
55758;SDS011;41678;52.126;20.664;2023-03-21T04:15:20;34.63;;;12.32;;
55758;SDS011;41678;52.126;20.664;2023-03-21T04:20:48;27.45;;;11.75;;
55758;SDS011;41678;52.126;20.664;2023-03-21T04:26:10;35.35;;;12.55;;
55758;SDS011;41678;52.126;20.664;2023-03-21T04:31:41;33.08;;;13.35;;
55758;SDS011;41678;52.126;20.664;2023-03-21T04:37:05;28.10;;;11.75;;
55758;SDS011;41678;52.126;20.664;2023-03-21T04:42:33;36.13;;;12.65;;
55758;SDS011;41678;52.126;20.664;2023-03-21T04:47:53;30.20;;;13.18;;
55758;SDS011;41678;52.126;20.664;2023-03-21T04:53:13;29.63;;;12.52;;
55758;SDS011;41678;52.126;20.664;2023-03-21T04:58:33;32.72;;;12.05;;
55758;SDS011;41678;52.126;20.664;2023-03-21T05:03:53;32.00;;;12.98;;
55758;SDS011;41678;52.126;20.664;2023-03-21T05:09:17;31.50;;;12.88;;
55758;SDS011;41678;52.126;20.664;2023-03-21T05:14:38;29.00;;;12.25;;
55758;SDS011;41678;52.126;20.664;2023-03-21T05:19:58;24.58;;;12.38;;
55758;SDS011;41678;52.126;20.664;2023-03-21T05:25:18;28.35;;;12.52;;
55758;SDS011;41678;52.126;20.664;2023-03-21T05:31:05;28.88;;;12.32;;
55758;SDS011;41678;52.126;20.664;2023-03-21T05:36:26;26.70;;;11.82;;
55758;SDS011;41678;52.126;20.664;2023-03-21T05:41:46;29.60;;;13.05;;
55758;SDS011;41678;52.126;20.664;2023-03-21T05:47:06;34.10;;;12.85;;
55758;SDS011;41678;52.126;20.664;2023-03-21T05:52:34;33.80;;;12.07;;
55758;SDS011;41678;52.126;20.664;2023-03-21T05:58:02;30.38;;;11.63;;
55758;SDS011;41678;52.126;20.664;2023-03-21T06:03:23;25.50;;;11.90;;
55758;SDS011;41678;52.126;20.664;2023-03-21T06:09:09;30.70;;;11.68;;
55758;SDS011;41678;52.126;20.664;2023-03-21T06:14:31;29.23;;;12.35;;
55758;SDS011;41678;52.126;20.664;2023-03-21T06:20:09;25.88;;;10.63;;
55758;SDS011;41678;52.126;20.664;2023-03-21T06:25:37;29.17;;;11.07;;
55758;SDS011;41678;52.126;20.664;2023-03-21T06:30:57;25.83;;;11.57;;
55758;SDS011;41678;52.126;20.664;2023-03-21T06:36:19;31.42;;;12.10;;
55758;SDS011;41678;52.126;20.664;2023-03-21T06:41:39;26.20;;;10.32;;
55758;SDS011;41678;52.126;20.664;2023-03-21T06:47:00;23.52;;;9.90;;
55758;SDS011;41678;52.126;20.664;2023-03-21T06:52:20;26.92;;;10.13;;
55758;SDS011;41678;52.126;20.664;2023-03-21T06:57:41;24.13;;;8.93;;
55758;SDS011;41678;52.126;20.664;2023-03-21T07:03:01;27.98;;;9.85;;
55758;SDS011;41678;52.126;20.664;2023-03-21T07:08:22;22.30;;;8.77;;
55758;SDS011;41678;52.126;20.664;2023-03-21T07:13:42;24.65;;;8.48;;
55758;SDS011;41678;52.126;20.664;2023-03-21T07:19:02;22.70;;;8.85;;
55758;SDS011;41678;52.126;20.664;2023-03-21T07:24:22;23.45;;;8.35;;
55758;SDS011;41678;52.126;20.664;2023-03-21T07:29:41;19.40;;;8.52;;
55758;SDS011;41678;52.126;20.664;2023-03-21T07:35:02;16.60;;;6.95;;
55758;SDS011;41678;52.126;20.664;2023-03-21T07:40:22;18.35;;;7.05;;
55758;SDS011;41678;52.126;20.664;2023-03-21T07:45:42;19.42;;;6.40;;
55758;SDS011;41678;52.126;20.664;2023-03-21T07:51:02;18.85;;;6.07;;
55758;SDS011;41678;52.126;20.664;2023-03-21T08:01:44;16.02;;;7.07;;
55758;SDS011;41678;52.126;20.664;2023-03-21T08:07:04;18.90;;;6.43;;
55758;SDS011;41678;52.126;20.664;2023-03-21T08:12:23;17.20;;;6.70;;
55758;SDS011;41678;52.126;20.664;2023-03-21T08:17:43;18.85;;;8.13;;
55758;SDS011;41678;52.126;20.664;2023-03-21T08:23:06;17.52;;;8.13;;
55758;SDS011;41678;52.126;20.664;2023-03-21T08:28:25;19.38;;;8.65;;
55758;SDS011;41678;52.126;20.664;2023-03-21T08:33:44;23.00;;;8.45;;
55758;SDS011;41678;52.126;20.664;2023-03-21T08:39:05;14.70;;;7.22;;
55758;SDS011;41678;52.126;20.664;2023-03-21T08:44:25;17.00;;;7.90;;
55758;SDS011;41678;52.126;20.664;2023-03-21T08:49:45;21.27;;;8.90;;
55758;SDS011;41678;52.126;20.664;2023-03-21T08:55:05;16.17;;;7.78;;
55758;SDS011;41678;52.126;20.664;2023-03-21T09:00:25;22.83;;;8.15;;
55758;SDS011;41678;52.126;20.664;2023-03-21T09:05:45;19.52;;;6.72;;
55758;SDS011;41678;52.126;20.664;2023-03-21T09:11:04;13.13;;;6.05;;
55758;SDS011;41678;52.126;20.664;2023-03-21T09:16:24;13.88;;;7.20;;
55758;SDS011;41678;52.126;20.664;2023-03-21T09:21:44;15.85;;;7.88;;
55758;SDS011;41678;52.126;20.664;2023-03-21T09:27:03;16.27;;;6.53;;
55758;SDS011;41678;52.126;20.664;2023-03-21T09:32:23;12.65;;;6.43;;
55758;SDS011;41678;52.126;20.664;2023-03-21T09:37:43;16.75;;;6.63;;
55758;SDS011;41678;52.126;20.664;2023-03-21T09:48:58;16.10;;;7.15;;
55758;SDS011;41678;52.126;20.664;2023-03-21T09:54:21;17.40;;;5.75;;
55758;SDS011;41678;52.126;20.664;2023-03-21T09:59:43;22.05;;;8.10;;
55758;SDS011;41678;52.126;20.664;2023-03-21T10:05:09;14.57;;;6.75;;
55758;SDS011;41678;52.126;20.664;2023-03-21T10:10:41;13.35;;;6.75;;
55758;SDS011;41678;52.126;20.664;2023-03-21T10:16:15;14.75;;;6.10;;
55758;SDS011;41678;52.126;20.664;2023-03-21T10:21:40;14.07;;;6.20;;
55758;SDS011;41678;52.126;20.664;2023-03-21T10:27:04;13.02;;;5.88;;
55758;SDS011;41678;52.126;20.664;2023-03-21T10:32:24;14.38;;;6.28;;
55758;SDS011;41678;52.126;20.664;2023-03-21T10:37:43;13.10;;;5.30;;
55758;SDS011;41678;52.126;20.664;2023-03-21T10:43:17;12.00;;;5.32;;
55758;SDS011;41678;52.126;20.664;2023-03-21T10:48:58;12.85;;;4.65;;
55758;SDS011;41678;52.126;20.664;2023-03-21T10:54:19;13.15;;;5.32;;
55758;SDS011;41678;52.126;20.664;2023-03-21T10:59:43;12.70;;;5.55;;
55758;SDS011;41678;52.126;20.664;2023-03-21T11:05:53;9.93;;;4.28;;
55758;SDS011;41678;52.126;20.664;2023-03-21T11:11:03;7.88;;;3.65;;
55758;SDS011;41678;52.126;20.664;2023-03-21T11:16:39;9.45;;;3.92;;
55758;SDS011;41678;52.126;20.664;2023-03-21T11:22:04;10.00;;;4.32;;
55758;SDS011;41678;52.126;20.664;2023-03-21T11:27:26;10.60;;;4.05;;
55758;SDS011;41678;52.126;20.664;2023-03-21T11:32:50;10.13;;;4.57;;
55758;SDS011;41678;52.126;20.664;2023-03-21T11:38:22;27.90;;;8.30;;
55758;SDS011;41678;52.126;20.664;2023-03-21T11:43:45;15.75;;;5.85;;
55758;SDS011;41678;52.126;20.664;2023-03-21T11:49:11;13.30;;;5.15;;
55758;SDS011;41678;52.126;20.664;2023-03-21T11:54:33;9.10;;;3.25;;
55758;SDS011;41678;52.126;20.664;2023-03-21T12:00:19;11.40;;;5.05;;
55758;SDS011;41678;52.126;20.664;2023-03-21T12:05:59;9.40;;;4.00;;
55758;SDS011;41678;52.126;20.664;2023-03-21T12:11:36;8.93;;;3.85;;
55758;SDS011;41678;52.126;20.664;2023-03-21T12:22:47;9.38;;;3.83;;
55758;SDS011;41678;52.126;20.664;2023-03-21T12:28:40;9.40;;;3.92;;
55758;SDS011;41678;52.126;20.664;2023-03-21T12:34:20;11.60;;;5.55;;
55758;SDS011;41678;52.126;20.664;2023-03-21T12:39:45;10.90;;;5.55;;
55758;SDS011;41678;52.126;20.664;2023-03-21T12:50:49;11.82;;;5.15;;
55758;SDS011;41678;52.126;20.664;2023-03-21T12:56:14;9.07;;;3.15;;
55758;SDS011;41678;52.126;20.664;2023-03-21T13:01:39;8.45;;;3.85;;
55758;SDS011;41678;52.126;20.664;2023-03-21T13:12:35;8.38;;;2.85;;
55758;SDS011;41678;52.126;20.664;2023-03-21T13:23:38;7.28;;;3.13;;
55758;SDS011;41678;52.126;20.664;2023-03-21T13:28:58;7.13;;;2.83;;
55758;SDS011;41678;52.126;20.664;2023-03-21T13:34:19;5.97;;;2.58;;
55758;SDS011;41678;52.126;20.664;2023-03-21T13:39:45;10.02;;;4.25;;
55758;SDS011;41678;52.126;20.664;2023-03-21T13:45:07;8.63;;;3.28;;
55758;SDS011;41678;52.126;20.664;2023-03-21T13:55:59;9.43;;;3.00;;
55758;SDS011;41678;52.126;20.664;2023-03-21T14:01:44;8.20;;;3.67;;
55758;SDS011;41678;52.126;20.664;2023-03-21T14:12:47;8.40;;;3.35;;
55758;SDS011;41678;52.126;20.664;2023-03-21T14:18:07;7.30;;;3.35;;
55758;SDS011;41678;52.126;20.664;2023-03-21T14:23:36;8.70;;;3.88;;
55758;SDS011;41678;52.126;20.664;2023-03-21T14:28:56;10.35;;;4.38;;
55758;SDS011;41678;52.126;20.664;2023-03-21T14:34:17;10.05;;;4.43;;
55758;SDS011;41678;52.126;20.664;2023-03-21T14:39:36;8.63;;;3.92;;
55758;SDS011;41678;52.126;20.664;2023-03-21T14:44:56;13.10;;;5.22;;
55758;SDS011;41678;52.126;20.664;2023-03-21T14:50:18;12.35;;;5.80;;
55758;SDS011;41678;52.126;20.664;2023-03-21T14:55:45;12.95;;;4.93;;
55758;SDS011;41678;52.126;20.664;2023-03-21T15:01:12;11.38;;;4.45;;
55758;SDS011;41678;52.126;20.664;2023-03-21T15:06:54;12.45;;;5.07;;
55758;SDS011;41678;52.126;20.664;2023-03-21T15:12:15;10.60;;;4.35;;
55758;SDS011;41678;52.126;20.664;2023-03-21T15:17:35;9.70;;;4.30;;
55758;SDS011;41678;52.126;20.664;2023-03-21T15:22:57;6.33;;;2.80;;
55758;SDS011;41678;52.126;20.664;2023-03-21T15:28:25;15.52;;;3.67;;
55758;SDS011;41678;52.126;20.664;2023-03-21T15:33:49;7.80;;;3.40;;
55758;SDS011;41678;52.126;20.664;2023-03-21T15:39:12;10.60;;;3.75;;
55758;SDS011;41678;52.126;20.664;2023-03-21T15:44:34;9.63;;;4.43;;
55758;SDS011;41678;52.126;20.664;2023-03-21T15:49:53;8.13;;;3.92;;
55758;SDS011;41678;52.126;20.664;2023-03-21T15:55:18;18.73;;;4.90;;
55758;SDS011;41678;52.126;20.664;2023-03-21T16:00:51;10.73;;;5.10;;
55758;SDS011;41678;52.126;20.664;2023-03-21T16:06:17;13.15;;;5.15;;
55758;SDS011;41678;52.126;20.664;2023-03-21T16:11:55;11.45;;;6.10;;
55758;SDS011;41678;52.126;20.664;2023-03-21T16:22:46;10.80;;;4.63;;
55758;SDS011;41678;52.126;20.664;2023-03-21T16:28:15;11.38;;;5.43;;
55758;SDS011;41678;52.126;20.664;2023-03-21T16:33:35;16.55;;;4.60;;
55758;SDS011;41678;52.126;20.664;2023-03-21T16:38:55;11.18;;;5.13;;
55758;SDS011;41678;52.126;20.664;2023-03-21T16:44:15;13.10;;;5.18;;
55758;SDS011;41678;52.126;20.664;2023-03-21T16:49:34;17.75;;;5.55;;
55758;SDS011;41678;52.126;20.664;2023-03-21T16:54:54;11.65;;;5.20;;
55758;SDS011;41678;52.126;20.664;2023-03-21T17:00:17;17.70;;;6.32;;
55758;SDS011;41678;52.126;20.664;2023-03-21T17:05:43;12.70;;;5.90;;
55758;SDS011;41678;52.126;20.664;2023-03-21T17:11:02;16.67;;;6.03;;
55758;SDS011;41678;52.126;20.664;2023-03-21T17:16:25;9.95;;;4.65;;
55758;SDS011;41678;52.126;20.664;2023-03-21T17:21:44;24.48;;;8.90;;
55758;SDS011;41678;52.126;20.664;2023-03-21T17:27:07;40.88;;;13.75;;
55758;SDS011;41678;52.126;20.664;2023-03-21T17:37:46;66.90;;;24.45;;
55758;SDS011;41678;52.126;20.664;2023-03-21T17:43:17;53.33;;;21.35;;
55758;SDS011;41678;52.126;20.664;2023-03-21T17:48:38;43.13;;;18.10;;
55758;SDS011;41678;52.126;20.664;2023-03-21T17:53:58;50.92;;;20.95;;
55758;SDS011;41678;52.126;20.664;2023-03-21T17:59:19;53.92;;;19.52;;
55758;SDS011;41678;52.126;20.664;2023-03-21T18:04:38;75.35;;;29.58;;
55758;SDS011;41678;52.126;20.664;2023-03-21T18:09:57;68.05;;;28.33;;
55758;SDS011;41678;52.126;20.664;2023-03-21T18:15:17;50.83;;;21.92;;
55758;SDS011;41678;52.126;20.664;2023-03-21T18:25:58;48.53;;;20.35;;
55758;SDS011;41678;52.126;20.664;2023-03-21T18:31:18;63.53;;;22.48;;
55758;SDS011;41678;52.126;20.664;2023-03-21T18:36:37;52.10;;;19.80;;
55758;SDS011;41678;52.126;20.664;2023-03-21T18:41:57;55.22;;;20.80;;
55758;SDS011;41678;52.126;20.664;2023-03-21T18:52:39;54.22;;;23.83;;
55758;SDS011;41678;52.126;20.664;2023-03-21T18:57:59;82.97;;;31.00;;
55758;SDS011;41678;52.126;20.664;2023-03-21T19:03:20;71.57;;;28.10;;
55758;SDS011;41678;52.126;20.664;2023-03-21T19:08:40;85.55;;;27.42;;
55758;SDS011;41678;52.126;20.664;2023-03-21T19:14:00;98.15;;;33.17;;
55758;SDS011;41678;52.126;20.664;2023-03-21T19:19:19;84.32;;;32.95;;
55758;SDS011;41678;52.126;20.664;2023-03-21T19:24:40;88.82;;;33.47;;
55758;SDS011;41678;52.126;20.664;2023-03-21T19:30:01;94.38;;;34.13;;
55758;SDS011;41678;52.126;20.664;2023-03-21T19:35:20;102.57;;;36.80;;
55758;SDS011;41678;52.126;20.664;2023-03-21T19:40:41;118.30;;;39.00;;
55758;SDS011;41678;52.126;20.664;2023-03-21T19:46:02;158.98;;;51.75;;
55758;SDS011;41678;52.126;20.664;2023-03-21T19:51:22;142.85;;;50.35;;
55758;SDS011;41678;52.126;20.664;2023-03-21T19:56:50;170.73;;;56.35;;
55758;SDS011;41678;52.126;20.664;2023-03-21T20:02:10;192.25;;;61.28;;
55758;SDS011;41678;52.126;20.664;2023-03-21T20:07:30;163.13;;;55.75;;
55758;SDS011;41678;52.126;20.664;2023-03-21T20:12:51;148.52;;;51.38;;
55758;SDS011;41678;52.126;20.664;2023-03-21T20:18:10;149.02;;;53.10;;
55758;SDS011;41678;52.126;20.664;2023-03-21T20:23:30;139.32;;;49.22;;
55758;SDS011;41678;52.126;20.664;2023-03-21T20:28:53;122.93;;;48.70;;
55758;SDS011;41678;52.126;20.664;2023-03-21T20:39:36;87.22;;;38.38;;
55758;SDS011;41678;52.126;20.664;2023-03-21T20:44:55;101.00;;;38.20;;
55758;SDS011;41678;52.126;20.664;2023-03-21T20:50:17;74.20;;;33.33;;
55758;SDS011;41678;52.126;20.664;2023-03-21T20:55:39;88.75;;;34.03;;
55758;SDS011;41678;52.126;20.664;2023-03-21T21:00:59;90.45;;;31.08;;
55758;SDS011;41678;52.126;20.664;2023-03-21T21:06:21;76.60;;;31.13;;
55758;SDS011;41678;52.126;20.664;2023-03-21T21:11:41;65.43;;;26.90;;
55758;SDS011;41678;52.126;20.664;2023-03-21T21:17:02;73.72;;;26.90;;
55758;SDS011;41678;52.126;20.664;2023-03-21T21:22:22;63.50;;;26.87;;
55758;SDS011;41678;52.126;20.664;2023-03-21T21:27:42;49.00;;;23.15;;
55758;SDS011;41678;52.126;20.664;2023-03-21T21:33:02;43.35;;;22.98;;
55758;SDS011;41678;52.126;20.664;2023-03-21T21:38:22;56.70;;;24.92;;
55758;SDS011;41678;52.126;20.664;2023-03-21T21:43:42;63.72;;;23.23;;
55758;SDS011;41678;52.126;20.664;2023-03-21T21:49:01;70.00;;;28.17;;
55758;SDS011;41678;52.126;20.664;2023-03-21T21:54:22;58.67;;;25.38;;
55758;SDS011;41678;52.126;20.664;2023-03-21T21:59:42;62.83;;;26.27;;
55758;SDS011;41678;52.126;20.664;2023-03-21T22:05:01;75.28;;;25.15;;
55758;SDS011;41678;52.126;20.664;2023-03-21T22:10:22;89.93;;;27.08;;
55758;SDS011;41678;52.126;20.664;2023-03-21T22:15:44;104.75;;;29.42;;
55758;SDS011;41678;52.126;20.664;2023-03-21T22:21:05;82.30;;;27.90;;
55758;SDS011;41678;52.126;20.664;2023-03-21T22:26:25;65.70;;;25.85;;
55758;SDS011;41678;52.126;20.664;2023-03-21T22:31:44;78.40;;;28.08;;
55758;SDS011;41678;52.126;20.664;2023-03-21T22:37:05;92.03;;;29.13;;
55758;SDS011;41678;52.126;20.664;2023-03-21T22:42:25;95.00;;;30.98;;
55758;SDS011;41678;52.126;20.664;2023-03-21T22:47:45;74.43;;;28.98;;
55758;SDS011;41678;52.126;20.664;2023-03-21T22:53:04;74.32;;;25.25;;
55758;SDS011;41678;52.126;20.664;2023-03-21T22:58:24;62.45;;;24.27;;
55758;SDS011;41678;52.126;20.664;2023-03-21T23:03:43;59.92;;;24.30;;
55758;SDS011;41678;52.126;20.664;2023-03-21T23:09:03;50.88;;;20.92;;
55758;SDS011;41678;52.126;20.664;2023-03-21T23:14:23;59.03;;;22.38;;
55758;SDS011;41678;52.126;20.664;2023-03-21T23:19:43;58.60;;;22.77;;
55758;SDS011;41678;52.126;20.664;2023-03-21T23:25:03;53.47;;;20.20;;
55758;SDS011;41678;52.126;20.664;2023-03-21T23:30:23;49.47;;;21.08;;
55758;SDS011;41678;52.126;20.664;2023-03-21T23:35:43;45.30;;;19.48;;
55758;SDS011;41678;52.126;20.664;2023-03-21T23:41:07;43.42;;;17.15;;
55758;SDS011;41678;52.126;20.664;2023-03-21T23:46:34;42.75;;;18.15;;
55758;SDS011;41678;52.126;20.664;2023-03-21T23:51:54;39.90;;;16.25;;
55758;SDS011;41678;52.126;20.664;2023-03-21T23:57:14;32.67;;;15.93;;
